Time;durP1;ratioP1;P1;durP2;ratioP2;P2;SDS_P1;SDS_P2;PMS_P1;PMS_P2;Temp;Humidity;BMP_temperature;BMP_pressure;BME280_temperature;BME280_humidity;BME280_pressure;Samples;Min_cycle;Max_cycle;Signal;HPM_P1;HPM_P2
2022/03/30 00:02:15;;;;;;;0.20;0.20;;;;;;;11.18;59.98;99850.69;5075470;28;20060;-76
2022/03/30 00:04:43;;;;;;;0.20;0.20;;;;;;;11.13;60.17;99845.44;5075878;28;20024;-75
2022/03/30 00:07:12;;;;;;;0.20;0.20;;;;;;;11.15;59.87;99843.09;5075698;28;20028;-76
2022/03/30 00:09:40;;;;;;;0.20;0.20;;;;;;;11.24;59.19;99835.28;5075949;28;20034;-76
2022/03/30 00:12:09;;;;;;;0.20;0.20;;;;;;;11.23;59.47;99842.81;5076231;28;20040;-76
2022/03/30 00:14:37;;;;;;;0.20;0.20;;;;;;;11.19;59.57;99846.75;5075833;28;20020;-75
2022/03/30 00:17:03;;;;;;;0.20;0.20;;;;;;;11.17;59.29;99840.75;5076128;28;20032;-76
2022/03/30 00:19:31;;;;;;;0.20;0.20;;;;;;;11.10;59.16;99849.00;5075697;28;20028;-76
2022/03/30 00:22:06;;;;;;;0.20;0.20;;;;;;;11.16;59.70;99845.50;5077069;28;20028;-74
2022/03/30 00:24:35;;;;;;;0.20;0.20;;;;;;;11.26;59.07;99838.50;5075829;28;20044;-76
2022/03/30 00:27:07;;;;;;;0.20;0.20;;;;;;;11.25;58.87;99831.31;5077837;28;20028;-74
2022/03/30 00:29:38;;;;;;;0.20;0.20;;;;;;;11.27;59.31;99835.31;5077063;28;20428;-77
2022/03/30 00:32:07;;;;;;;0.20;0.20;;;;;;;11.23;58.93;99825.31;5076801;28;20090;-75
2022/03/30 00:34:37;;;;;;;0.20;0.20;;;;;;;11.24;59.38;99821.38;5076631;28;20471;-74
2022/03/30 00:37:06;;;;;;;0.20;0.20;;;;;;;11.41;58.85;99812.44;5076282;28;20135;-76
2022/03/30 00:39:35;;;;;;;0.20;0.20;;;;;;;11.42;58.39;99802.91;5077449;28;20043;-77
2022/03/30 00:42:12;;;;;;;0.20;0.20;;;;;;;11.38;58.96;99790.91;5077324;28;20028;-76
2022/03/30 00:44:43;;;;;;;0.20;0.20;;;;;;;11.27;59.08;99789.97;5077297;28;20029;-75
2022/03/30 00:47:21;;;;;;;0.20;0.20;;;;;;;11.22;59.38;99779.94;5076943;28;20475;-75
2022/03/30 00:49:50;;;;;;;0.20;0.20;;;;;;;11.22;59.41;99768.81;5078188;28;20032;-75
2022/03/30 00:52:20;;;;;;;0.20;0.20;;;;;;;11.14;59.83;99755.19;5077308;28;20451;-76
2022/03/30 00:54:53;;;;;;;0.20;0.20;;;;;;;11.20;59.36;99746.13;5076593;28;20550;-76
2022/03/30 00:57:24;;;;;;;0.20;0.20;;;;;;;11.15;59.28;99754.81;5076866;28;20056;-76
2022/03/30 00:59:53;;;;;;;0.20;0.20;;;;;;;11.11;59.66;99755.94;5077139;28;20024;-76
2022/03/30 01:02:23;;;;;;;0.20;0.20;;;;;;;11.03;60.47;99752.25;5078974;28;20478;-77
2022/03/30 01:04:52;;;;;;;0.20;0.20;;;;;;;11.05;59.63;99752.66;5061187;28;20031;-75
2022/03/30 01:07:18;;;;;;;0.20;0.20;;;;;;;11.00;60.22;99748.22;5077612;28;20041;-76
2022/03/30 01:09:46;;;;;;;0.20;0.20;;;;;;;11.02;60.23;99737.53;5075327;28;20489;-76
2022/03/30 01:12:20;;;;;;;0.20;0.20;;;;;;;10.99;60.11;99735.50;5058911;28;20028;-75
2022/03/30 01:14:52;;;;;;;;;;;;;;;11.10;60.13;99740.41;5075475;28;20033;-77
2022/03/30 01:17:20;;;;;;;0.20;0.20;;;;;;;11.21;58.49;99719.88;5075433;28;19912;-77
2022/03/30 01:19:52;;;;;;;0.20;0.20;;;;;;;11.16;59.31;99733.31;5075797;28;20485;-76
2022/03/30 01:22:23;;;;;;;0.20;0.20;;;;;;;11.12;59.52;99738.03;5075890;28;20040;-76
2022/03/30 01:24:54;;;;;;;0.20;0.20;;;;;;;11.26;58.95;99721.53;5075241;28;20082;-76
2022/03/30 01:27:24;;;;;;;0.20;0.20;;;;;;;11.17;59.38;99715.44;5075127;28;20036;-76
2022/03/30 01:32:42;;;;;;;0.20;0.20;;;;;;;11.28;57.42;99714.38;5079165;28;20066;-76
2022/03/30 01:35:10;;;;;;;0.28;0.28;;;;;;;11.32;57.79;99720.00;5079035;28;20029;-76
2022/03/30 01:37:39;;;;;;;0.20;0.20;;;;;;;11.31;58.40;99712.84;5080037;28;20031;-76
2022/03/30 01:40:06;;;;;;;0.20;0.20;;;;;;;11.40;58.35;99720.88;5079652;28;20087;-73
2022/03/30 01:42:31;;;;;;;0.20;0.20;;;;;;;11.33;58.47;99710.47;5113816;28;20075;-76
2022/03/30 01:45:03;;;;;;;0.20;0.20;;;;;;;11.39;58.14;99711.72;5079659;28;20033;-75
2022/03/30 01:47:29;;;;;;;0.20;0.20;;;;;;;11.45;57.62;99709.41;5079607;28;20028;-73
2022/03/30 01:49:55;;;;;;;0.20;0.20;;;;;;;11.16;58.06;99666.50;5079616;28;20036;-75
2022/03/30 01:52:21;;;;;;;0.20;0.20;;;;;;;11.27;58.14;99698.06;5080555;28;20095;-74
2022/03/30 01:54:53;;;;;;;0.20;0.20;;;;;;;11.39;58.00;99692.22;5079331;28;20029;-77
2022/03/30 01:57:22;;;;;;;0.20;0.20;;;;;;;11.34;58.51;99706.50;5080674;28;20028;-76
2022/03/30 01:59:50;;;;;;;0.22;0.22;;;;;;;11.26;58.02;99693.69;5080330;28;20059;-77
2022/03/30 02:02:18;;;;;;;0.20;0.20;;;;;;;11.19;58.69;99682.47;5079399;28;20111;-77
2022/03/30 02:04:44;;;;;;;0.20;0.20;;;;;;;11.20;58.84;99667.34;5079452;28;20037;-75
2022/03/30 02:07:15;;;;;;;0.20;0.20;;;;;;;11.20;59.16;99651.44;5080077;28;20047;-75
2022/03/30 02:09:45;;;;;;;0.20;0.20;;;;;;;11.21;59.65;99652.25;5079775;28;20036;-76
2022/03/30 02:12:14;;;;;;;0.25;0.25;;;;;;;11.39;58.49;99656.03;5079830;28;20075;-76
2022/03/30 02:14:43;;;;;;;0.20;0.20;;;;;;;11.48;57.82;99650.16;5080759;28;20028;-77
2022/03/30 02:17:14;;;;;;;0.20;0.20;;;;;;;11.35;57.93;99651.63;5082379;28;20092;-75
2022/03/30 02:19:45;;;;;;;0.20;0.20;;;;;;;11.37;58.98;99638.91;5082853;28;20382;-76
2022/03/30 02:22:14;;;;;;;0.20;0.20;;;;;;;11.33;59.34;99631.69;5078240;28;20063;-77
2022/03/30 02:24:42;;;;;;;0.20;0.20;;;;;;;11.34;59.15;99634.06;5077979;28;20031;-76
2022/03/30 02:27:10;;;;;;;0.20;0.20;;;;;;;11.32;58.58;99636.44;5076969;28;20039;-75
2022/03/30 02:29:38;;;;;;;0.20;0.20;;;;;;;11.37;58.61;99633.31;5076760;28;20039;-77
2022/03/30 02:32:07;;;;;;;0.20;0.20;;;;;;;11.42;57.88;99629.41;5077448;28;20032;-76
2022/03/30 02:34:35;;;;;;;0.20;0.20;;;;;;;11.39;58.56;99617.03;5078127;28;20395;-74
2022/03/30 02:37:04;;;;;;;0.20;0.20;;;;;;;11.39;58.29;99619.00;5064315;28;20059;-75
2022/03/30 02:39:35;;;;;;;0.20;0.20;;;;;;;11.35;58.37;99619.00;5061194;28;20024;-75
2022/03/30 02:42:05;;;;;;;0.20;0.20;;;;;;;11.55;58.20;99625.94;5060824;28;20467;-75
2022/03/30 02:44:34;;;;;;;0.20;0.20;;;;;;;11.49;57.84;99627.47;5060229;28;20024;-74
2022/03/30 02:47:06;;;;;;;0.20;0.20;;;;;;;11.65;57.54;99624.44;5059445;28;20170;-77
2022/03/30 02:49:32;;;;;;;0.20;0.20;;;;;;;11.67;57.23;99619.31;5059364;28;20120;-74
2022/03/30 02:52:01;;;;;;;0.20;0.20;;;;;;;11.54;58.06;99613.19;5060737;28;20040;-76
2022/03/30 02:54:27;;;;;;;0.20;0.20;;;;;;;11.48;58.38;99609.16;5060339;28;20024;-75
2022/03/30 02:56:56;;;;;;;0.20;0.20;;;;;;;11.42;58.12;99588.41;5060552;28;20040;-76
2022/03/30 02:59:22;;;;;;;0.20;0.20;;;;;;;11.45;58.07;99596.03;5061373;28;20043;-74
2022/03/30 03:01:54;;;;;;;0.20;0.20;;;;;;;11.34;59.21;99578.38;5060818;28;20032;-76
2022/03/30 03:04:23;;;;;;;0.20;0.20;;;;;;;11.46;58.01;99592.03;5060872;28;20046;-74
2022/03/30 03:06:52;;;;;;;0.20;0.20;;;;;;;11.45;58.44;99584.03;5078685;28;20029;-75
2022/03/30 03:09:17;;;;;;;0.22;0.22;;;;;;;11.44;58.75;99577.69;5060596;28;20028;-76
2022/03/30 03:11:45;;;;;;;0.20;0.20;;;;;;;11.49;58.79;99576.53;5060469;28;20064;-75
2022/03/30 03:14:17;;;;;;;0.20;0.20;;;;;;;11.53;58.50;99569.81;5060213;28;20028;-75
2022/03/30 03:16:46;;;;;;;0.20;0.20;;;;;;;11.67;57.92;99574.72;5061090;28;20033;-75
2022/03/30 03:19:15;;;;;;;0.28;0.28;;;;;;;11.65;57.81;99570.72;5060628;28;20463;-74
2022/03/30 03:21:46;;;;;;;0.20;0.20;;;;;;;11.61;58.58;99572.66;5060817;28;20123;-75
2022/03/30 03:24:22;;;;;;;0.20;0.20;;;;;;;11.60;58.17;99577.44;5062674;28;20020;-78
2022/03/30 03:26:53;;;;;;;0.20;0.20;;;;;;;11.55;58.32;99567.44;5064387;28;20090;-76
2022/03/30 03:29:24;;;;;;;0.20;0.20;;;;;;;11.53;58.13;99569.03;5059766;28;20024;-76
2022/03/30 03:31:52;;;;;;;0.20;0.20;;;;;;;11.47;58.00;99563.00;5059366;28;20028;-76
2022/03/30 03:34:24;;;;;;;0.20;0.20;;;;;;;11.54;58.12;99568.63;5059539;28;20039;-76
2022/03/30 03:36:55;;;;;;;0.20;0.20;;;;;;;11.52;57.92;99579.38;5070207;28;20055;-77
2022/03/30 03:39:21;;;;;;;0.20;0.20;;;;;;;11.54;58.48;99579.78;5076499;28;20039;-75
2022/03/30 03:41:52;;;;;;;0.20;0.20;;;;;;;11.61;58.24;99581.84;5075875;28;20024;-75
2022/03/30 03:44:20;;;;;;;0.20;0.20;;;;;;;11.54;57.96;99585.34;5075869;28;20035;-75
2022/03/30 03:46:55;;;;;;;0.20;0.20;;;;;;;11.55;58.06;99580.56;5076012;28;20031;-75
2022/03/30 03:49:26;;;;;;;0.20;0.20;;;;;;;11.61;58.14;99592.16;5075922;28;20037;-75
2022/03/30 03:51:57;;;;;;;0.20;0.20;;;;;;;11.58;58.48;99588.16;5075885;28;20082;-77
2022/03/30 03:54:25;;;;;;;0.20;0.20;;;;;;;11.54;58.75;99599.28;5076003;28;20483;-77
2022/03/30 03:56:56;;;;;;;0.20;0.20;;;;;;;11.77;57.34;99595.47;5074565;28;20105;-76
2022/03/30 03:59:27;;;;;;;0.20;0.20;;;;;;;11.73;56.57;99591.91;5076855;28;20036;-75
2022/03/30 04:01:58;;;;;;;0.20;0.20;;;;;;;11.70;56.59;99601.81;5075552;28;20024;-76
2022/03/30 04:04:25;;;;;;;0.20;0.20;;;;;;;11.61;57.05;99603.31;5076730;28;20034;-75
2022/03/30 04:06:56;;;;;;;0.20;0.20;;;;;;;11.69;57.66;99596.63;5078707;28;20116;-75
2022/03/30 04:09:27;;;;;;;0.20;0.20;;;;;;;11.71;57.39;99597.81;5081397;28;20071;-74
2022/03/30 04:11:56;;;;;;;0.20;0.20;;;;;;;11.67;57.74;99596.22;5080600;28;20028;-76
2022/03/30 04:14:24;;;;;;;0.20;0.20;;;;;;;11.68;57.42;99604.19;5081961;28;20033;-75
2022/03/30 04:16:55;;;;;;;0.28;0.28;;;;;;;11.77;57.98;99601.06;5082256;28;20067;-75
2022/03/30 04:19:25;;;;;;;0.20;0.20;;;;;;;11.75;58.31;99593.09;5082087;28;20024;-75
2022/03/30 04:21:54;;;;;;;0.20;0.20;;;;;;;11.64;58.55;99583.84;5082836;28;20040;-75
2022/03/30 04:24:25;;;;;;;0.20;0.20;;;;;;;11.65;58.76;99582.66;5081666;28;20475;-76
2022/03/30 04:26:53;;;;;;;0.20;0.20;;;;;;;11.60;59.00;99579.41;5080496;28;20091;-75
2022/03/30 04:29:24;;;;;;;0.20;0.20;;;;;;;11.62;59.37;99577.06;5064866;28;20037;-75
2022/03/30 04:31:53;;;;;;;0.20;0.20;;;;;;;11.57;60.03;99574.63;5078072;28;20025;-76
2022/03/30 04:34:21;;;;;;;0.20;0.20;;;;;;;11.57;60.32;99567.06;5076811;28;20032;-76
2022/03/30 04:36:49;;;;;;;0.20;0.20;;;;;;;11.53;60.32;99563.44;5076841;28;20056;-76
2022/03/30 04:39:17;;;;;;;0.20;0.20;;;;;;;11.53;60.67;99575.38;5076165;28;20033;-76
2022/03/30 04:41:46;;;;;;;0.30;0.30;;;;;;;11.47;60.20;99560.22;5077650;28;20032;-75
2022/03/30 04:44:18;;;;;;;0.20;0.20;;;;;;;11.66;60.53;99572.31;5077506;28;20032;-76
2022/03/30 04:46:49;;;;;;;0.20;0.20;;;;;;;11.59;60.08;99575.03;5077338;28;20442;-76
2022/03/30 04:49:17;;;;;;;0.20;0.20;;;;;;;11.54;59.97;99578.97;5077889;28;20357;-75
2022/03/30 04:51:43;;;;;;;0.20;0.20;;;;;;;11.53;59.85;99578.16;5080312;28;20097;-74
2022/03/30 04:54:12;;;;;;;0.20;0.20;;;;;;;11.58;59.42;99581.81;5077476;28;20024;-76
2022/03/30 04:56:40;;;;;;;0.20;0.20;;;;;;;11.61;59.98;99569.88;5075106;28;20041;-75
2022/03/30 04:59:08;;;;;;;0.20;0.20;;;;;;;11.61;60.19;99578.22;5076731;28;20021;-75
2022/03/30 05:01:37;;;;;;;0.20;0.20;;;;;;;11.67;60.38;99579.50;5078956;28;20060;-75
2022/03/30 05:04:07;;;;;;;0.20;0.20;;;;;;;11.73;58.51;99580.75;5082361;28;20494;-76
2022/03/30 05:06:33;;;;;;;0.20;0.20;;;;;;;11.73;58.68;99572.38;5079813;28;20430;-76
2022/03/30 05:09:06;;;;;;;0.20;0.20;;;;;;;11.74;58.82;99573.97;5077723;28;20024;-75
2022/03/30 05:11:39;;;;;;;0.20;0.20;;;;;;;11.78;58.80;99558.88;5075955;28;20036;-75
2022/03/30 05:14:06;;;;;;;0.20;0.20;;;;;;;11.80;58.37;99553.72;5076272;28;20383;-75
2022/03/30 05:16:37;;;;;;;0.20;0.20;;;;;;;11.82;58.17;99558.94;5075456;28;20066;-74
2022/03/30 05:19:06;;;;;;;0.20;0.20;;;;;;;11.86;58.32;99556.97;5075405;28;20035;-75
2022/03/30 05:21:37;;;;;;;0.20;0.20;;;;;;;11.83;58.26;99543.84;5075733;28;20063;-74
2022/03/30 05:24:06;;;;;;;0.20;0.20;;;;;;;11.77;57.82;99539.75;5075569;28;20028;-75
2022/03/30 05:26:31;;;;;;;0.20;0.20;;;;;;;11.82;58.26;99546.97;5075322;28;20040;-74
2022/03/30 05:28:59;;;;;;;0.20;0.20;;;;;;;11.98;58.52;99553.06;5076515;28;20025;-76
2022/03/30 05:31:25;;;;;;;0.20;0.20;;;;;;;11.95;58.32;99535.16;5076375;28;20198;-76
2022/03/30 05:33:53;;;;;;;0.20;0.20;;;;;;;11.88;58.02;99529.53;5076648;28;20481;-76
2022/03/30 05:36:24;;;;;;;0.20;0.20;;;;;;;11.92;58.10;99535.91;5075692;28;20056;-75
2022/03/30 05:38:55;;;;;;;0.20;0.20;;;;;;;11.93;57.73;99519.97;5076181;28;20471;-75
2022/03/30 05:41:24;;;;;;;0.20;0.20;;;;;;;12.07;57.19;99520.88;5076775;28;20078;-76
2022/03/30 05:43:55;;;;;;;0.22;0.22;;;;;;;12.07;57.08;99525.66;5075694;28;20348;-76
2022/03/30 05:46:23;;;;;;;0.20;0.20;;;;;;;12.20;55.65;99523.38;5076502;28;20092;-75
2022/03/30 05:48:54;;;;;;;0.20;0.20;;;;;;;12.22;56.35;99530.13;5079192;28;20083;-75
2022/03/30 05:51:25;;;;;;;0.20;0.20;;;;;;;12.21;55.88;99530.53;5079075;28;20032;-75
2022/03/30 05:53:53;;;;;;;0.20;0.20;;;;;;;12.21;55.75;99525.75;5075203;28;20045;-76
2022/03/30 05:57:00;;;;;;;0.20;0.20;;;;;;;12.40;55.08;99527.44;5075323;28;20101;-75
2022/03/30 05:59:15;;;;;;;0.20;0.20;;;;;;;12.35;55.50;99525.00;5075999;28;20040;-76
2022/03/30 06:01:46;;;;;;;0.20;0.20;;;;;;;12.43;56.30;99529.44;5073778;28;20058;-75
2022/03/30 06:04:19;;;;;;;0.20;0.20;;;;;;;12.38;54.96;99517.88;5073910;28;20474;-76
2022/03/30 06:06:50;;;;;;;0.20;0.20;;;;;;;12.57;55.27;99532.31;5074818;28;20028;-76
2022/03/30 06:09:19;;;;;;;0.20;0.20;;;;;;;12.59;56.77;99532.72;5074000;28;20111;-76
2022/03/30 06:11:47;;;;;;;0.20;0.20;;;;;;;12.58;57.70;99530.31;5073913;28;20039;-75
2022/03/30 06:14:21;;;;;;;0.20;0.20;;;;;;;12.56;57.54;99527.09;5073953;28;20032;-77
2022/03/30 06:16:48;;;;;;;0.20;0.20;;;;;;;12.62;59.42;99522.75;5073404;28;20423;-76
2022/03/30 06:19:18;;;;;;;0.20;0.20;;;;;;;12.65;59.23;99521.19;5075600;28;20054;-77
2022/03/30 06:21:45;;;;;;;0.20;0.20;;;;;;;12.81;58.55;99507.66;5077457;28;20086;-76
2022/03/30 06:24:14;;;;;;;0.20;0.20;;;;;;;12.74;59.49;99507.66;5079000;28;20032;-77
2022/03/30 06:26:46;;;;;;;0.20;0.20;;;;;;;12.91;59.63;99506.09;5077906;28;20037;-76
2022/03/30 06:29:17;;;;;;;0.20;0.20;;;;;;;12.89;60.67;99514.88;5079302;28;20032;-74
2022/03/30 06:31:47;;;;;;;0.20;0.20;;;;;;;12.89;60.56;99519.66;5078768;28;20039;-75
2022/03/30 06:34:13;;;;;;;0.20;0.20;;;;;;;12.86;60.43;99521.25;5078000;28;20386;-75
2022/03/30 06:36:41;;;;;;;0.20;0.20;;;;;;;12.84;60.62;99524.44;5077202;28;20056;-77
2022/03/30 06:39:09;;;;;;;0.20;0.20;;;;;;;12.88;61.02;99523.63;5077256;28;20067;-76
2022/03/30 06:41:39;;;;;;;0.20;0.20;;;;;;;12.87;60.98;99534.00;5076527;28;20032;-76
2022/03/30 06:44:07;;;;;;;0.20;0.20;;;;;;;12.90;61.07;99532.44;5076553;28;20119;-77
2022/03/30 06:46:37;;;;;;;0.20;0.20;;;;;;;13.01;61.26;99525.69;5076845;28;20056;-76
2022/03/30 06:49:11;;;;;;;0.20;0.20;;;;;;;12.88;61.84;99527.22;5077537;28;20028;-76
2022/03/30 06:51:41;;;;;;;0.20;0.20;;;;;;;13.02;63.29;99523.69;5077071;28;20036;-77
2022/03/30 06:54:09;;;;;;;0.20;0.20;;;;;;;12.97;63.87;99522.06;5061201;28;20110;-77
2022/03/30 06:56:38;;;;;;;0.20;0.20;;;;;;;12.80;61.77;99508.88;5077475;28;20032;-76
2022/03/30 06:59:26;;;;;;;0.20;0.20;;;;;;;12.76;63.02;99513.63;5080632;28;20039;-76
2022/03/30 07:01:58;;;;;;;0.20;0.20;;;;;;;12.68;64.17;99520.41;5086201;28;20028;-76
2022/03/30 07:04:35;;;;;;;0.20;0.20;;;;;;;12.61;64.94;99531.50;5089607;28;20050;-77
2022/03/30 07:12:38;;;;;;;0.20;0.20;;;;;;;12.48;67.18;99498.38;5088452;28;20055;-77
2022/03/30 07:15:07;;;;;;;0.20;0.20;;;;;;;12.63;67.88;99495.66;5088149;28;20028;-77
2022/03/30 07:17:44;;;;;;;0.20;0.20;;;;;;;12.69;69.35;99488.50;5089150;28;20028;-77
2022/03/30 07:20:14;;;;;;;0.20;0.20;;;;;;;12.57;70.28;99504.41;5122633;28;20390;-79
2022/03/30 07:22:40;;;;;;;0.20;0.20;;;;;;;12.63;70.97;99490.09;5088944;28;20029;-77
2022/03/30 07:25:10;;;;;;;0.20;0.20;;;;;;;12.52;71.00;99490.84;5089108;28;20042;-78
2022/03/30 07:27:43;;;;;;;0.20;0.20;;;;;;;12.33;70.70;99485.56;5123754;28;20052;-77
2022/03/30 07:30:13;;;;;;;0.20;0.20;;;;;;;12.23;72.55;99483.53;5072919;28;20375;-78
2022/03/30 07:32:40;;;;;;;0.20;0.20;;;;;;;12.22;72.13;99481.94;5088356;28;20036;-77
2022/03/30 07:35:11;;;;;;;0.20;0.20;;;;;;;12.15;73.26;99487.47;5072329;28;20032;-78
2022/03/30 07:37:44;;;;;;;0.20;0.20;;;;;;;12.16;74.31;99483.50;5052232;28;20097;-78
2022/03/30 07:40:18;;;;;;;0.20;0.20;;;;;;;12.17;73.53;99479.50;5085900;28;20032;-78
2022/03/30 07:42:52;;;;;;;0.20;0.20;;;;;;;12.23;73.39;99475.16;5070311;28;20025;-77
2022/03/30 07:45:21;;;;;;;0.20;0.20;;;;;;;12.17;72.81;99485.88;5053019;28;20040;-79
2022/03/30 07:47:52;;;;;;;0.20;0.20;;;;;;;12.05;74.52;99483.44;5055461;28;20051;-78
2022/03/30 07:50:24;;;;;;;0.20;0.20;;;;;;;12.12;75.04;99500.19;5056446;28;20035;-78
2022/03/30 07:52:52;;;;;;;0.20;0.20;;;;;;;12.20;75.90;99515.00;5057317;28;20091;-78
2022/03/30 07:55:24;;;;;;;0.20;0.20;;;;;;;12.28;76.00;99514.63;5070603;28;20529;-78
2022/03/30 07:57:50;;;;;;;0.20;0.20;;;;;;;12.34;76.69;99529.00;5052875;28;20033;-79
2022/03/30 08:00:21;;;;;;;0.20;0.20;;;;;;;12.33;75.89;99531.00;5085905;28;20087;-79
2022/03/30 08:02:52;;;;;;;0.20;0.20;;;;;;;12.30;76.16;99534.56;5052531;28;20036;-78
2022/03/30 08:05:21;;;;;;;0.20;0.20;;;;;;;12.33;76.93;99533.00;5052692;28;20079;-78
2022/03/30 08:07:51;;;;;;;0.20;0.20;;;;;;;12.28;77.52;99525.00;5053511;28;20029;-78
2022/03/30 08:10:19;;;;;;;0.20;0.20;;;;;;;12.34;77.10;99503.91;5054359;28;20092;-79
2022/03/30 08:12:46;;;;;;;0.20;0.20;;;;;;;12.27;77.26;99496.31;5057851;28;20021;-79
2022/03/30 08:15:13;;;;;;;0.30;0.30;;;;;;;12.32;77.79;99500.72;5055312;28;20035;-78
2022/03/30 08:17:50;;;;;;;0.20;0.20;;;;;;;12.39;77.50;99503.53;5070324;28;20464;-78
2022/03/30 08:23:13;;;;;;;0.20;0.20;;;;;;;12.40;75.99;99505.13;5041546;28;20488;-77
2022/03/30 08:25:39;;;;;;;0.20;0.20;;;;;;;12.42;74.76;99501.97;5070083;28;20064;-78
2022/03/30 08:28:07;;;;;;;0.20;0.20;;;;;;;12.35;75.95;99504.69;5052941;28;20028;-78
2022/03/30 08:30:34;;;;;;;0.20;0.20;;;;;;;12.36;76.16;99490.38;5052237;28;20037;-77
2022/03/30 08:33:06;;;;;;;0.20;0.20;;;;;;;12.31;75.56;99501.91;5051252;28;20021;-76
2022/03/30 08:35:34;;;;;;;0.20;0.20;;;;;;;12.37;75.42;99491.97;5055246;28;20106;-76
2022/03/30 08:38:03;;;;;;;0.20;0.20;;;;;;;12.42;74.50;99494.38;5089259;28;20028;-77
2022/03/30 08:40:33;;;;;;;0.20;0.20;;;;;;;12.55;75.12;99483.66;5088691;28;20377;-77
2022/03/30 08:43:04;;;;;;;0.20;0.20;;;;;;;12.65;75.12;99487.69;5088346;28;20024;-77
2022/03/30 08:45:32;;;;;;;0.20;0.20;;;;;;;12.69;74.71;99482.91;5088174;28;20031;-77
2022/03/30 08:47:59;;;;;;;0.20;0.20;;;;;;;12.75;74.86;99493.31;5087548;28;20054;-78
2022/03/30 08:50:25;;;;;;;0.20;0.20;;;;;;;12.82;74.27;99481.34;5088031;28;20041;-79
2022/03/30 08:52:55;;;;;;;0.20;0.20;;;;;;;12.93;74.07;99484.97;5086769;28;20088;-80
2022/03/30 08:55:26;;;;;;;0.20;0.20;;;;;;;12.92;73.47;99477.78;5087152;28;20104;-80
2022/03/30 08:57:54;;;;;;;0.20;0.20;;;;;;;13.07;72.39;99473.81;5088907;28;20087;-77
2022/03/30 09:00:25;;;;;;;0.20;0.20;;;;;;;13.08;73.37;99472.63;5089548;28;20029;-78
2022/03/30 09:03:00;;;;;;;0.20;0.20;;;;;;;13.22;73.43;99448.75;5086718;28;20029;-77
2022/03/30 09:05:29;;;;;;;0.20;0.20;;;;;;;13.11;73.55;99455.09;5087655;28;20032;-78
2022/03/30 09:08:11;;;;;;;0.20;0.20;;;;;;;13.25;72.56;99451.50;5089479;28;20037;-77
2022/03/30 09:10:43;;;;;;;0.20;0.20;;;;;;;13.33;72.85;99455.94;5089981;28;20028;-76
2022/03/30 09:13:19;;;;;;;0.25;0.25;;;;;;;13.43;72.84;99454.34;5072668;28;20024;-73
2022/03/30 09:15:52;;;;;;;0.20;0.20;;;;;;;13.61;72.19;99443.91;5073142;28;20047;-74
2022/03/30 09:18:23;;;;;;;0.20;0.20;;;;;;;13.84;70.99;99435.09;5106802;28;20045;-73
2022/03/30 09:20:55;;;;;;;0.30;0.30;;;;;;;13.64;70.15;99439.53;5073113;28;20065;-74
2022/03/30 09:23:32;;;;;;;0.20;0.20;;;;;;;13.75;70.11;99431.94;5073118;28;20127;-75
2022/03/30 09:26:01;;;;;;;0.20;0.20;;;;;;;13.85;70.57;99433.91;5073049;28;20048;-71
2022/03/30 09:28:30;;;;;;;0.20;0.20;;;;;;;14.09;70.17;99429.44;5056096;28;20037;-75
2022/03/30 09:30:58;;;;;;;0.20;0.20;;;;;;;14.15;68.59;99415.81;5072651;28;20494;-74
2022/03/30 09:33:29;;;;;;;0.20;0.20;;;;;;;14.21;68.47;99391.00;5073066;28;20032;-73
2022/03/30 09:36:02;;;;;;;0.20;0.20;;;;;;;14.59;68.71;99415.22;5071858;28;20053;-72
2022/03/30 09:38:38;;;;;;;0.20;0.20;;;;;;;14.28;68.36;99410.59;5072520;28;20033;-72
2022/03/30 09:41:08;;;;;;;0.20;0.20;;;;;;;14.41;67.27;99412.50;5074403;28;20031;-73
2022/03/30 09:43:41;;;;;;;0.20;0.20;;;;;;;14.51;66.62;99419.28;5072753;28;20024;-74
2022/03/30 09:46:13;;;;;;;0.20;0.20;;;;;;;14.67;66.75;99428.00;5072725;28;20032;-75
2022/03/30 09:48:52;;;;;;;0.20;0.20;;;;;;;14.97;65.97;99418.22;5072510;28;20130;-73
2022/03/30 09:51:24;;;;;;;0.20;0.20;;;;;;;15.30;64.78;99424.38;5073479;28;20032;-73
2022/03/30 09:53:52;;;;;;;0.20;0.20;;;;;;;15.42;63.13;99412.63;5073404;28;20028;-73
2022/03/30 09:56:24;;;;;;;0.20;0.20;;;;;;;15.95;61.78;99402.91;5076642;28;20131;-75
2022/03/30 09:59:01;;;;;;;0.20;0.20;;;;;;;16.54;61.86;99391.34;5075372;28;20017;-73
2022/03/30 10:01:34;;;;;;;0.20;0.20;;;;;;;16.47;58.82;99388.63;5075538;28;20460;-74
2022/03/30 10:04:08;;;;;;;0.20;0.20;;;;;;;16.20;59.76;99388.59;5109686;28;20124;-74
2022/03/30 10:06:41;;;;;;;0.20;0.20;;;;;;;16.01;60.42;99375.19;5078836;28;20039;-77
2022/03/30 10:09:13;;;;;;;0.20;0.20;;;;;;;15.78;61.40;99384.28;5083768;28;20021;-75
2022/03/30 10:11:39;;;;;;;0.20;0.20;;;;;;;15.63;61.11;99384.44;5082640;28;20463;-75
2022/03/30 10:14:09;;;;;;;0.20;0.20;;;;;;;15.88;61.17;99383.38;5077987;28;20031;-71
2022/03/30 10:16:37;;;;;;;0.20;0.20;;;;;;;15.80;60.31;99376.22;5076051;28;20515;-71
2022/03/30 10:19:04;;;;;;;0.20;0.20;;;;;;;15.96;61.37;99373.66;5075767;28;20036;-75
2022/03/30 10:21:48;;;;;;;0.20;0.20;;;;;;;16.16;59.62;99360.56;5075244;28;20027;-80
2022/03/30 10:25:09;;;;;;;0.20;0.20;;;;;;;16.10;59.84;99359.44;5076027;28;20059;-82
2022/03/30 10:27:56;;;;;;;0.20;0.20;;;;;;;16.06;59.69;99347.47;5073175;28;20060;-81
2022/03/30 10:30:31;;;;;;;0.20;0.20;;;;;;;15.88;59.77;99344.91;5080058;28;20111;-77
2022/03/30 10:33:01;;;;;;;0.20;0.20;;;;;;;15.53;60.66;99346.03;5084769;28;20031;-77
2022/03/30 10:35:41;;;;;;;0.20;0.20;;;;;;;15.44;60.02;99348.53;5084742;28;20043;-79
2022/03/30 10:38:07;;;;;;;0.20;0.20;;;;;;;15.25;61.36;99341.53;5091936;28;20024;-77
2022/03/30 10:40:33;;;;;;;0.20;0.20;;;;;;;15.21;60.30;99335.16;5088277;28;20036;-76
2022/03/30 10:43:01;;;;;;;0.20;0.20;;;;;;;15.23;61.58;99315.13;5082506;28;20025;-78
2022/03/30 10:45:39;;;;;;;0.20;0.20;;;;;;;15.33;61.45;99297.41;5076070;28;20123;-79
2022/03/30 10:48:18;;;;;;;0.20;0.20;;;;;;;15.59;59.98;99310.72;5075642;28;20020;-75
2022/03/30 10:50:54;;;;;;;0.20;0.20;;;;;;;15.92;59.64;99302.75;5075293;28;20110;-73
2022/03/30 10:53:33;;;;;;;0.20;0.20;;;;;;;15.82;58.29;99289.66;5074818;28;20056;-75
2022/03/30 10:56:15;;;;;;;0.20;0.20;;;;;;;15.93;58.01;99301.56;5076861;28;20397;-73
2022/03/30 10:58:52;;;;;;;0.20;0.20;;;;;;;16.14;58.11;99290.06;5080923;28;20082;-77
2022/03/30 11:01:38;;;;;;;0.20;0.20;;;;;;;16.35;57.64;99276.91;5078527;28;20032;-79
2022/03/30 11:04:17;;;;;;;0.20;0.20;;;;;;;16.33;55.80;99256.91;5076884;28;20024;-80
2022/03/30 11:06:45;;;;;;;0.20;0.20;;;;;;;16.27;56.03;99256.56;5082376;28;20033;-76
2022/03/30 11:09:28;;;;;;;0.20;0.20;;;;;;;16.27;54.83;99264.22;5089852;28;20067;-76
2022/03/30 11:12:14;;;;;;;0.20;0.20;;;;;;;16.63;54.16;99248.41;5089023;28;20035;-77
2022/03/30 11:14:46;;;;;;;0.20;0.20;;;;;;;16.72;53.93;99242.25;5080739;28;20029;-80
2022/03/30 11:17:14;;;;;;;0.20;0.20;;;;;;;16.83;53.70;99250.47;5075616;28;20028;-83
2022/03/30 11:19:55;;;;;;;0.20;0.20;;;;;;;16.77;53.25;99248.16;5074638;28;20032;-80
2022/03/30 11:22:32;;;;;;;0.20;0.20;;;;;;;16.68;53.96;99228.25;5080703;28;20029;-77
2022/03/30 11:25:13;;;;;;;0.20;0.20;;;;;;;16.35;54.23;99244.03;5076625;28;20036;-77
2022/03/30 11:27:40;;;;;;;0.20;0.20;;;;;;;16.18;54.99;99223.41;5089962;28;20017;-77
2022/03/30 11:30:19;;;;;;;0.20;0.20;;;;;;;16.02;56.25;99203.63;5088754;28;20032;-76
2022/03/30 11:32:50;;;;;;;0.20;0.20;;;;;;;16.03;56.76;99233.25;5086054;28;20108;-77
2022/03/30 11:35:18;;;;;;;0.20;0.20;;;;;;;16.15;56.40;99227.09;5088974;28;20025;-77
2022/03/30 11:37:49;;;;;;;0.20;0.20;;;;;;;16.12;56.26;99216.69;5088577;28;20085;-76
2022/03/30 11:40:15;;;;;;;0.20;0.20;;;;;;;15.87;56.76;99214.28;5089231;28;20071;-77
2022/03/30 11:42:54;;;;;;;0.20;0.20;;;;;;;15.57;58.23;99217.84;5090780;28;20021;-81
2022/03/30 11:45:29;;;;;;;0.20;0.20;;;;;;;15.46;58.52;99211.56;5094031;28;20028;-76
2022/03/30 11:48:06;;;;;;;0.20;0.20;;;;;;;15.30;60.61;99214.19;5089351;28;20029;-77
2022/03/30 11:50:36;;;;;;;0.20;0.20;;;;;;;15.41;61.52;99198.03;5090383;28;20048;-77
2022/03/30 11:53:09;;;;;;;0.20;0.20;;;;;;;15.38;61.63;99193.25;5088723;28;20033;-78
2022/03/30 11:55:59;;;;;;;0.20;0.20;;;;;;;15.40;61.99;99211.25;5082043;28;20032;-84
2022/03/30 11:58:56;;;;;;;0.20;0.20;;;;;;;15.50;59.85;99200.31;5076260;28;20039;-84
2022/03/30 12:01:23;;;;;;;0.20;0.20;;;;;;;15.60;61.53;99200.16;5061812;28;20036;-80
2022/03/30 12:03:54;;;;;;;0.20;0.20;;;;;;;15.65;59.36;99185.72;5073922;28;20062;-81